createdAt,value
2018-01-13T00:01:19.882Z,191.67
2018-01-13T00:03:51.749Z,200.83
2018-01-13T00:06:28.739Z,174.97
2018-01-13T00:09:09.100Z,182.97
2018-01-13T00:11:47.702Z,207.70
2018-01-13T00:14:19.720Z,193.83
2018-01-13T00:16:53.038Z,183.43
2018-01-13T00:19:35.622Z,217.20
2018-01-13T00:22:17.448Z,192.70
2018-01-13T00:24:49.438Z,188.00
2018-01-13T00:27:22.602Z,191.90
2018-01-13T00:29:53.145Z,185.70
2018-01-13T00:32:25.521Z,206.83
2018-01-13T00:34:55.239Z,160.77
2018-01-13T00:37:24.916Z,171.87
2018-01-13T00:39:55.947Z,173.83
2018-01-13T00:42:26.118Z,165.30
2018-01-13T00:44:56.407Z,175.97
2018-01-13T00:47:26.725Z,190.30
2018-01-13T00:49:57.445Z,184.43
2018-01-13T00:52:32.234Z,187.17
2018-01-13T00:55:03.513Z,194.40
2018-01-13T00:57:34.907Z,219.97
2018-01-13T01:00:08.632Z,226.30
2018-01-13T01:02:39.153Z,137.07
2018-01-13T01:05:11.558Z,179.97
2018-01-13T01:07:42.163Z,166.97
2018-01-13T01:10:13.561Z,174.57
2018-01-13T01:12:45.413Z,169.43
2018-01-13T01:15:15.743Z,192.50
2018-01-13T01:17:45.675Z,227.27
2018-01-13T01:20:16.030Z,169.53
2018-01-13T01:22:46.236Z,188.67
2018-01-13T01:25:16.257Z,177.57
2018-01-13T01:27:48.707Z,139.77
2018-01-13T01:30:21.961Z,177.17
2018-01-13T01:32:51.555Z,175.80
2018-01-13T01:35:21.868Z,182.20
2018-01-13T01:37:51.491Z,133.90
2018-01-13T01:40:21.485Z,144.00
2018-01-13T01:42:51.201Z,166.70
2018-01-13T01:45:23.461Z,201.33
2018-01-13T01:47:54.119Z,158.13
2018-01-13T01:50:24.033Z,145.67
2018-01-13T01:52:54.154Z,206.07
2018-01-13T01:55:23.737Z,162.57
2018-01-13T01:57:54.076Z,180.20
2018-01-13T02:00:23.822Z,177.27
2018-01-13T02:02:53.239Z,174.93
2018-01-13T02:05:23.272Z,167.93
2018-01-13T02:07:53.649Z,146.47
2018-01-13T02:10:23.219Z,157.03
2018-01-13T02:12:53.509Z,151.07
2018-01-13T02:15:23.220Z,155.93
2018-01-13T02:17:52.804Z,163.47
2018-01-13T02:20:22.331Z,165.93
2018-01-13T02:22:55.459Z,157.83
2018-01-13T02:25:38.636Z,146.13
2018-01-13T02:28:34.023Z,119.60
2018-01-13T02:31:12.984Z,128.30
2018-01-13T02:37:00.101Z,144.10
2018-01-13T02:39:43.221Z,129.27
2018-01-13T02:42:18.152Z,120.53
2018-01-13T02:44:49.238Z,116.20
2018-01-13T02:47:26.969Z,126.90
2018-01-13T02:50:12.741Z,127.00
2018-01-13T02:52:43.591Z,158.30
2018-01-13T02:55:13.812Z,122.80
2018-01-13T02:57:44.784Z,134.43
2018-01-13T03:00:18.532Z,137.73
2018-01-13T03:02:51.158Z,122.17
2018-01-13T03:05:23.025Z,134.60
2018-01-13T03:08:06.902Z,114.10
2018-01-13T03:10:43.315Z,121.90
2018-01-13T03:13:13.614Z,116.30
2018-01-13T03:15:44.223Z,134.30
2018-01-13T03:18:14.338Z,100.73
2018-01-13T03:20:43.888Z,121.27
2018-01-13T03:23:14.343Z,108.70
2018-01-13T03:25:44.924Z,113.73
2018-01-13T03:28:15.272Z,112.83
2018-01-13T03:30:45.607Z,99.80
2018-01-13T03:33:16.021Z,92.57
2018-01-13T03:35:45.754Z,101.67
2018-01-13T03:38:15.813Z,102.20
2018-01-13T03:40:46.621Z,113.00
2018-01-13T03:43:17.267Z,96.57
2018-01-13T03:45:51.120Z,100.90
2018-01-13T03:48:20.769Z,106.00
2018-01-13T03:50:50.392Z,104.03
2018-01-13T03:53:19.973Z,92.07
2018-01-13T03:55:51.407Z,99.83
2018-01-13T03:58:27.634Z,100.23
2018-01-13T04:00:57.254Z,96.63
2018-01-13T04:03:27.673Z,90.80
2018-01-13T04:05:57.465Z,103.03
2018-01-13T04:08:27.149Z,92.90
2018-01-13T04:10:57.331Z,89.57
2018-01-13T04:13:26.885Z,112.80
2018-01-13T04:15:56.513Z,121.50
2018-01-13T04:18:26.738Z,109.50
2018-01-13T04:20:56.284Z,98.17
2018-01-13T04:23:25.865Z,95.77
2018-01-13T04:25:56.063Z,94.30
2018-01-13T04:28:25.606Z,95.43
2018-01-13T04:30:55.934Z,99.50
2018-01-13T04:33:26.213Z,99.50
2018-01-13T04:35:56.594Z,93.07
2018-01-13T04:38:26.357Z,91.80
2018-01-13T04:40:55.890Z,109.00
2018-01-13T04:43:26.140Z,94.37
2018-01-13T04:45:55.787Z,100.83
2018-01-13T04:48:27.351Z,94.77
2018-01-13T04:51:01.138Z,97.37
2018-01-13T04:53:30.748Z,105.43
2018-01-13T04:56:00.765Z,92.37
2018-01-13T04:58:30.318Z,88.37
2018-01-13T05:01:00.190Z,80.97
2018-01-13T05:03:29.891Z,92.67
2018-01-13T05:06:00.976Z,73.33
2018-01-13T05:08:31.509Z,89.80
2018-01-13T05:11:02.751Z,90.57
2018-01-13T05:13:32.256Z,79.13
2018-01-13T05:16:02.647Z,90.43
2018-01-13T05:18:33.722Z,85.07
2018-01-13T05:21:05.502Z,96.37
2018-01-13T05:23:36.131Z,94.17
2018-01-13T05:26:05.866Z,82.03
2018-01-13T05:28:35.253Z,83.43
2018-01-13T05:31:04.832Z,91.00
2018-01-13T05:33:35.113Z,80.70
2018-01-13T05:36:04.775Z,95.00
2018-01-13T05:38:34.228Z,83.63
2018-01-13T05:41:04.501Z,87.13
2018-01-13T05:43:34.136Z,91.10
2018-01-13T05:46:03.632Z,66.97
2018-01-13T05:48:33.225Z,76.80
2018-01-13T05:51:02.713Z,81.73
2018-01-13T05:53:33.047Z,70.33
2018-01-13T05:56:03.272Z,75.83
2018-01-13T05:58:33.692Z,77.17
2018-01-13T06:01:03.567Z,65.37
2018-01-13T06:03:33.992Z,62.30
2018-01-13T06:06:04.433Z,70.93
2018-01-13T06:08:34.040Z,73.33
2018-01-13T06:11:04.307Z,63.30
2018-01-13T06:13:33.851Z,68.60
2018-01-13T06:16:03.491Z,73.73
2018-01-13T06:18:32.971Z,59.47
2018-01-13T06:21:02.683Z,68.50
2018-01-13T06:23:33.087Z,81.37
2018-01-13T06:26:02.807Z,68.40
2018-01-13T06:28:32.225Z,75.27
2018-01-13T06:31:03.067Z,64.67
2018-01-13T06:33:32.528Z,50.83
2018-01-13T06:36:02.674Z,66.90
2018-01-13T06:38:32.250Z,64.73
2018-01-13T06:41:02.938Z,62.67
2018-01-13T06:43:33.268Z,66.23
2018-01-13T06:46:03.743Z,61.13
2018-01-13T06:48:33.183Z,67.90
2018-01-13T06:51:03.282Z,57.97
2018-01-13T06:53:32.719Z,59.43
2018-01-13T06:56:02.846Z,63.03
2018-01-13T06:58:33.016Z,63.20
2018-01-13T07:01:02.509Z,60.07
2018-01-13T07:03:32.780Z,104.20
2018-01-13T07:06:02.876Z,59.47
2018-01-13T07:08:32.423Z,67.70
2018-01-13T07:11:02.962Z,66.53
2018-01-13T07:13:33.309Z,76.77
2018-01-13T07:16:02.840Z,70.40
2018-01-13T07:18:33.120Z,82.77
2018-01-13T07:21:02.642Z,67.57
2018-01-13T07:23:32.081Z,78.27
2018-01-13T07:26:02.281Z,75.43
2018-01-13T07:28:31.809Z,59.70
2018-01-13T07:31:01.903Z,62.53
2018-01-13T07:33:31.481Z,62.40
2018-01-13T07:36:01.860Z,55.50
2018-01-13T07:38:31.653Z,52.67
2018-01-13T07:41:01.548Z,63.17
2018-01-13T07:43:31.191Z,72.10
2018-01-13T07:46:00.968Z,67.93
2018-01-13T07:48:30.645Z,58.17
2018-01-13T07:51:01.054Z,55.10
2018-01-13T07:53:30.834Z,45.30
2018-01-13T07:56:00.862Z,71.20
2018-01-13T07:58:30.717Z,57.20
2018-01-13T08:01:00.280Z,66.30
2018-01-13T08:03:29.919Z,57.47
2018-01-13T08:06:00.274Z,53.20
2018-01-13T08:08:30.133Z,59.33
2018-01-13T08:10:59.712Z,66.70
2018-01-13T08:13:29.106Z,54.37
2018-01-13T08:15:58.691Z,64.53
2018-01-13T08:18:28.861Z,56.27
2018-01-13T08:20:58.321Z,49.10
2018-01-13T08:23:28.838Z,44.57
2018-01-13T08:26:00.510Z,59.07
2018-01-13T08:28:30.904Z,43.57
2018-01-13T08:31:01.073Z,55.50
2018-01-13T08:33:31.895Z,56.73
2018-01-13T08:36:01.561Z,46.43
2018-01-13T08:38:31.634Z,59.87
2018-01-13T08:41:01.605Z,56.07
2018-01-13T08:43:31.193Z,59.17
2018-01-13T08:46:08.890Z,47.23
2018-01-13T08:48:38.944Z,68.47
2018-01-13T08:51:08.510Z,44.40
2018-01-13T08:53:38.101Z,46.70
2018-01-13T08:56:08.533Z,49.60
2018-01-13T08:58:38.573Z,58.90
2018-01-13T09:01:08.490Z,52.30
2018-01-13T09:03:38.652Z,50.73
2018-01-13T09:06:08.570Z,47.43
2018-01-13T09:08:39.323Z,54.70
2018-01-13T09:11:08.911Z,47.23
2018-01-13T09:13:39.075Z,47.80
2018-01-13T09:16:09.323Z,47.67
2018-01-13T09:18:39.400Z,51.40
2018-01-13T09:21:09.111Z,44.53
2018-01-13T09:23:38.742Z,47.00
2018-01-13T09:26:08.596Z,48.67
2018-01-13T09:28:42.172Z,57.10
2018-01-13T09:31:12.500Z,46.67
2018-01-13T09:33:43.983Z,56.03
2018-01-13T09:36:14.166Z,43.10
2018-01-13T09:38:43.994Z,52.77
2018-01-13T09:41:14.907Z,54.43
2018-01-13T09:43:44.872Z,60.07
2018-01-13T09:46:15.160Z,53.30
2018-01-13T09:48:45.794Z,63.43
2018-01-13T09:51:15.490Z,53.03
2018-01-13T09:53:45.978Z,53.23
2018-01-13T09:56:29.332Z,48.20
2018-01-13T09:59:15.811Z,59.70
2018-01-13T10:01:45.676Z,42.00
2018-01-13T10:04:17.426Z,52.00
2018-01-13T10:06:47.728Z,39.63
2018-01-13T10:09:18.344Z,43.67
2018-01-13T10:11:48.604Z,35.57
2018-01-13T10:14:18.327Z,39.50
2018-01-13T10:16:47.926Z,39.60
2018-01-13T10:19:18.771Z,48.10
2018-01-13T10:21:53.249Z,37.73
2018-01-13T10:24:22.999Z,45.43
2018-01-13T10:26:53.328Z,43.37
2018-01-13T10:29:23.746Z,40.67
2018-01-13T10:31:53.689Z,31.53
2018-01-13T10:34:24.191Z,27.30
2018-01-13T10:36:58.251Z,35.90
2018-01-13T10:39:33.505Z,37.77
2018-01-13T10:42:05.932Z,39.37
2018-01-13T10:44:39.451Z,39.83
2018-01-13T10:47:12.214Z,38.30
2018-01-13T10:49:58.242Z,40.03
2018-01-13T10:52:41.119Z,62.73
2018-01-13T10:55:13.884Z,39.70
2018-01-13T10:57:52.679Z,38.83
2018-01-13T11:00:25.335Z,51.03
2018-01-13T11:02:58.939Z,39.27
2018-01-13T11:05:28.920Z,50.30
2018-01-13T11:08:00.463Z,40.77
2018-01-13T11:10:30.306Z,33.03
2018-01-13T11:12:59.926Z,48.10
2018-01-13T11:15:31.350Z,32.53
2018-01-13T11:18:02.824Z,35.47
2018-01-13T11:20:33.600Z,41.83
2018-01-13T11:23:05.100Z,38.17
2018-01-13T11:25:50.536Z,41.20
2018-01-13T11:28:43.753Z,31.07
2018-01-13T11:31:16.233Z,35.40
2018-01-13T11:33:57.132Z,41.30
2018-01-13T11:36:40.310Z,37.00
2018-01-13T11:39:18.611Z,36.43
2018-01-13T11:41:51.092Z,32.60
2018-01-13T11:44:35.555Z,45.60
2018-01-13T11:47:11.307Z,54.47
2018-01-13T11:49:52.559Z,37.00
2018-01-13T11:52:26.217Z,32.27
2018-01-13T11:55:10.097Z,30.00
2018-01-13T11:57:50.029Z,28.83
2018-01-13T12:00:35.567Z,33.77
2018-01-13T12:06:04.662Z,35.30
2018-01-13T12:08:38.518Z,41.50
2018-01-13T12:11:09.539Z,34.33
2018-01-13T12:13:43.273Z,28.03
2018-01-13T12:16:20.452Z,43.60
2018-01-13T12:21:30.834Z,35.13
2018-01-13T12:24:02.080Z,28.20
2018-01-13T12:26:37.147Z,53.20
2018-01-13T12:29:13.166Z,25.23
2018-01-13T12:31:53.628Z,28.47
2018-01-13T12:34:26.547Z,30.80
2018-01-13T12:37:05.906Z,19.70
2018-01-13T12:39:42.465Z,29.93
2018-01-13T12:42:19.542Z,24.20
2018-01-13T12:44:56.356Z,28.83
2018-01-13T12:47:29.551Z,25.20
2018-01-13T12:50:13.463Z,24.67
2018-01-13T12:52:54.589Z,26.90
2018-01-13T12:55:29.166Z,32.03
2018-01-13T12:58:02.867Z,28.03
2018-01-13T13:00:44.110Z,28.10
2018-01-13T13:03:27.994Z,26.20
2018-01-13T13:06:07.542Z,27.17
2018-01-13T13:08:48.923Z,23.20
2018-01-13T13:11:25.704Z,29.00
2018-01-13T13:13:57.851Z,28.77
2018-01-13T13:16:33.373Z,28.60
2018-01-13T13:19:12.843Z,22.23
2018-01-13T13:21:47.881Z,26.90
2018-01-13T13:24:25.980Z,15.53
2018-01-13T13:27:01.310Z,29.73
2018-01-13T13:29:33.875Z,26.07
2018-01-13T13:32:13.473Z,20.40
2018-01-13T13:34:54.948Z,28.77
2018-01-13T13:37:27.877Z,26.20
2018-01-13T13:40:02.891Z,23.60
2018-01-13T13:42:33.659Z,29.97
2018-01-13T13:45:09.010Z,21.67
2018-01-13T13:47:51.489Z,29.60
2018-01-13T13:50:22.679Z,31.57
2018-01-13T13:53:03.322Z,26.67
2018-01-13T13:55:36.979Z,45.33
2018-01-13T14:03:44.045Z,28.97
2018-01-13T14:06:15.649Z,28.10
2018-01-13T14:08:56.694Z,32.03
2018-01-13T14:11:39.675Z,26.87
2018-01-13T14:14:17.773Z,26.60
2018-01-13T14:16:58.488Z,32.00
2018-01-13T14:19:36.859Z,25.23
2018-01-13T14:22:17.216Z,29.63
2018-01-13T14:24:56.588Z,22.77
2018-01-13T14:27:30.599Z,28.23
2018-01-13T14:30:03.210Z,28.80
2018-01-13T14:32:39.135Z,28.63
2018-01-13T14:35:18.630Z,23.20
2018-01-13T14:37:51.571Z,26.00
2018-01-13T14:40:21.634Z,28.97
2018-01-13T14:42:54.366Z,25.87
2018-01-13T14:45:27.289Z,31.47
2018-01-13T14:48:02.166Z,32.10
2018-01-13T14:50:37.701Z,30.67
2018-01-13T14:53:12.423Z,30.47
2018-01-13T14:55:47.487Z,32.73
2018-01-13T14:58:26.395Z,30.23
2018-01-13T15:00:59.039Z,34.30
2018-01-13T15:03:29.010Z,28.80
2018-01-13T15:06:01.173Z,25.73
2018-01-13T15:08:33.874Z,27.90
2018-01-13T15:11:08.821Z,30.83
2018-01-13T15:13:43.754Z,29.10
2018-01-13T15:16:22.073Z,32.67
2018-01-13T15:18:58.411Z,30.80
2018-01-13T15:21:30.274Z,35.87
2018-01-13T15:24:07.679Z,36.53
2018-01-13T15:26:48.888Z,36.93
2018-01-13T15:29:22.470Z,33.50
2018-01-13T15:32:01.918Z,33.37
2018-01-13T15:34:37.472Z,184.70
2018-01-13T15:37:12.357Z,31.97
2018-01-13T15:39:42.612Z,27.70
2018-01-13T15:42:26.090Z,33.53
2018-01-13T15:45:08.608Z,33.20
2018-01-13T15:47:46.926Z,38.97
2018-01-13T15:50:34.984Z,35.60
2018-01-13T15:53:06.629Z,31.77
2018-01-13T15:55:42.079Z,48.20
2018-01-13T15:58:20.426Z,28.80
2018-01-13T16:00:53.897Z,29.60
2018-01-13T16:03:47.659Z,31.87
2018-01-13T16:06:33.460Z,32.17
2018-01-13T16:09:14.097Z,32.23
2018-01-13T16:11:47.632Z,33.10
2018-01-13T16:14:21.180Z,31.40
2018-01-13T16:16:54.716Z,33.63
2018-01-13T16:19:30.834Z,44.30
2018-01-13T16:22:08.233Z,28.70
2018-01-13T16:24:45.786Z,35.87
2018-01-13T16:27:17.834Z,39.13
2018-01-13T16:29:54.273Z,33.93
2018-01-13T16:32:34.531Z,35.33
2018-01-13T16:35:08.019Z,35.87
2018-01-13T16:37:42.697Z,39.97
2018-01-13T16:40:14.566Z,44.70
2018-01-13T16:42:45.968Z,63.40
2018-01-13T16:45:20.211Z,30.20
2018-01-13T16:47:51.514Z,39.50
2018-01-13T16:50:22.606Z,33.47
2018-01-13T16:53:02.213Z,35.13
2018-01-13T16:55:35.666Z,77.60
2018-01-13T16:58:06.774Z,33.47
2018-01-13T17:00:44.748Z,44.07
2018-01-13T17:03:31.471Z,33.43
2018-01-13T17:06:04.151Z,42.80
2018-01-13T17:08:38.729Z,39.50
2018-01-13T17:11:10.342Z,37.63
2018-01-13T17:13:45.816Z,40.50
2018-01-13T17:16:21.005Z,37.13
2018-01-13T17:19:00.442Z,41.73
2018-01-13T17:21:45.492Z,44.87
2018-01-13T17:24:31.997Z,45.13
2018-01-13T17:27:16.020Z,43.40
2018-01-13T17:29:50.149Z,33.80
2018-01-13T17:32:26.218Z,37.13
2018-01-13T17:35:01.658Z,27.00
2018-01-13T17:37:36.929Z,31.13
2018-01-13T17:40:16.032Z,37.00
2018-01-13T17:42:54.097Z,29.00
2018-01-13T17:45:33.249Z,49.37
2018-01-13T17:48:10.897Z,33.93
2018-01-13T17:50:47.195Z,41.10
2018-01-13T17:53:22.410Z,64.30
2018-01-13T17:55:54.216Z,32.63
2018-01-13T17:58:31.057Z,38.37
2018-01-13T18:01:01.474Z,52.03
2018-01-13T18:03:34.825Z,34.53
2018-01-13T18:06:13.391Z,31.50
2018-01-13T18:08:55.627Z,32.17
2018-01-13T18:11:26.275Z,48.30
2018-01-13T18:14:05.851Z,40.07
2018-01-13T18:16:43.128Z,44.80
2018-01-13T18:19:20.690Z,41.23
2018-01-13T18:21:53.825Z,48.30
2018-01-13T18:27:11.698Z,45.87
2018-01-13T18:30:01.479Z,46.37
2018-01-13T18:32:47.619Z,37.73
2018-01-13T18:35:34.330Z,69.27
2018-01-13T18:38:10.864Z,44.70
2018-01-13T18:40:51.251Z,41.00
2018-01-13T18:43:33.173Z,41.17
2018-01-13T18:46:10.381Z,44.13
2018-01-13T18:59:33.801Z,52.97
2018-01-13T19:02:34.177Z,33.97
2018-01-13T19:05:08.354Z,38.67
2018-01-13T19:07:47.304Z,45.07
2018-01-13T19:10:45.611Z,63.87
2018-01-13T19:13:35.750Z,45.00
2018-01-13T19:16:26.336Z,39.90
2018-01-13T19:19:47.157Z,34.33
2018-01-13T19:22:52.648Z,44.67
2018-01-13T19:25:53.830Z,44.33
2018-01-13T19:28:28.488Z,43.40
2018-01-13T19:31:07.401Z,43.37
2018-01-13T19:34:06.566Z,30.13
2018-01-13T19:36:54.101Z,35.20
2018-01-13T19:49:17.177Z,38.00
2018-01-13T19:56:50.206Z,37.10
2018-01-13T20:14:06.816Z,35.23
2018-01-13T20:17:08.120Z,95.37
2018-01-13T20:20:37.352Z,36.17
2018-01-13T20:23:45.443Z,40.10
2018-01-13T20:30:18.217Z,35.40
2018-01-13T20:37:08.417Z,43.20
2018-01-13T20:43:25.412Z,35.87
2018-01-13T20:49:27.719Z,39.20
2018-01-13T21:05:04.628Z,42.37
2018-01-13T21:29:46.757Z,36.17
2018-01-13T21:32:33.981Z,44.40
2018-01-13T21:35:40.632Z,49.77
2018-01-13T21:38:45.243Z,47.23
2018-01-13T21:41:41.704Z,39.70
2018-01-13T21:54:57.774Z,38.40
2018-01-13T22:00:42.781Z,38.60
2018-01-13T22:03:32.661Z,33.10
2018-01-13T22:06:28.003Z,42.27
2018-01-13T22:09:28.973Z,37.33
2018-01-13T22:12:12.639Z,51.43
2018-01-13T22:15:05.207Z,39.43
2018-01-13T22:17:49.132Z,43.43
2018-01-13T22:20:24.813Z,40.50
2018-01-13T22:23:16.189Z,61.73
2018-01-13T22:26:13.109Z,57.27
2018-01-13T22:28:48.338Z,55.07
2018-01-13T22:32:18.895Z,43.00
2018-01-13T22:38:02.901Z,68.93
2018-01-13T22:48:04.541Z,46.93
2018-01-13T22:50:49.694Z,51.90
2018-01-13T23:00:44.180Z,37.97
2018-01-13T23:03:21.097Z,44.60
2018-01-13T23:06:06.055Z,46.53
2018-01-13T23:14:56.666Z,36.50
2018-01-13T23:20:45.438Z,42.67
2018-01-13T23:26:45.414Z,45.63
2018-01-13T23:30:13.437Z,44.13
2018-01-13T23:32:50.960Z,42.87
2018-01-13T23:36:00.269Z,62.40
2018-01-13T23:47:08.997Z,41.60
2018-01-13T23:50:13.688Z,43.17
2018-01-13T23:56:40.909Z,37.33
2018-01-13T23:59:34.277Z,49.90
